Time;durP1;ratioP1;P1;durP2;ratioP2;P2;SDS_P1;SDS_P2;PMS_P1;PMS_P2;Temp;Humidity;BMP_temperature;BMP_pressure;BME280_temperature;BME280_humidity;BME280_pressure;Samples;Min_cycle;Max_cycle;Signal;HPM_P1;HPM_P2
2023/03/11 00:02:03;;;;;;;;;;;;;;;;;;5020390;28;19936;-87
2023/03/11 00:04:28;;;;;;;;;;;;;;;;;;5015274;28;19925;-88
2023/03/11 00:06:53;;;;;;;;;;;;;;;;;;5046307;22;19933;-83
2023/03/11 00:09:18;;;;;;;;;;;;;;;;;;5024235;28;20330;-83
2023/03/11 00:11:43;;;;;;;;;;;;;;;;;;5022904;28;19921;-83
2023/03/11 00:14:08;;;;;;;;;;;;;;;;;;5026785;28;19917;-83
2023/03/11 00:16:34;;;;;;;;;;;;;;;;;;5025124;28;19913;-83
2023/03/11 00:18:59;;;;;;;;;;;;;;;;;;5021664;28;19929;-83
2023/03/11 00:21:24;;;;;;;;;;;;;;;;;;5023202;28;19928;-84
2023/03/11 00:23:49;;;;;;;;;;;;;;;;;;5025686;28;19939;-83
2023/03/11 00:26:14;;;;;;;;;;;;;;;;;;5025525;28;19913;-83
2023/03/11 00:28:40;;;;;;;;;;;;;;;;;;5018185;28;19913;-83
2023/03/11 00:31:05;;;;;;;;;;;;;;;;;;5016705;28;19925;-83
2023/03/11 00:33:30;;;;;;;;;;;;;;;;;;5023195;28;20191;-83
2023/03/11 00:35:55;;;;;;;;;;;;;;;;;;5024095;28;19927;-83
2023/03/11 00:38:20;;;;;;;;;;;;;;;;;;5021810;28;20560;-83
2023/03/11 00:40:45;;;;;;;;;;;;;;;;;;5027529;28;19913;-83
2023/03/11 00:43:10;;;;;;;;;;;;;;;;;;5023658;28;20412;-83
2023/03/11 00:45:36;;;;;;;;;;;;;;;;;;5024236;28;19913;-83
2023/03/11 00:48:01;;;;;;;;;;;;;;;;;;5021447;28;19951;-83
2023/03/11 00:50:26;;;;;;;;;;;;;;;;;;5020583;28;19940;-83
2023/03/11 00:52:51;;;;;;;;;;;;;;;;;;5016016;28;20100;-83
2023/03/11 00:55:16;;;;;;;;;;;;;;;;;;5019309;28;19921;-83
2023/03/11 00:57:42;;;;;;;;;;;;;;;;;;5014549;28;19972;-83
2023/03/11 01:00:10;;;;;;;;;;;;;;;;;;5010605;28;20012;-83
2023/03/11 01:02:35;;;;;;;;;;;;;;;;;;5018030;28;19936;-84
2023/03/11 01:05:00;;;;;;;;;;;;;;;;;;5016711;28;19917;-83
2023/03/11 01:07:25;;;;;;;;;;;;;;;;;;5016611;28;20374;-83
2023/03/11 01:09:51;;;;;;;;;;;;;;;;;;5011818;28;19920;-83
2023/03/11 01:12:16;;;;;;;;;;;;;;;;;;5020214;28;20004;-84
2023/03/11 01:14:41;;;;;;;;;;;;;;;;;;5024018;28;21131;-83
2023/03/11 01:17:06;;;;;;;;;;;;;;;;;;5025520;28;19916;-84
2023/03/11 01:19:31;;;;;;;;;;;;;;;;;;5020444;28;20790;-83
2023/03/11 01:21:56;;;;;;;;;;;;;;;;;;5021842;28;19924;-83
2023/03/11 01:24:22;;;;;;;;;;;;;;;;;;5023565;28;19951;-83
2023/03/11 01:26:47;;;;;;;;;;;;;;;;;;5023795;28;19919;-83
2023/03/11 01:29:12;;;;;;;;;;;;;;;;;;5024715;28;19967;-84
2023/03/11 01:31:37;;;;;;;;;;;;;;;;;;5021955;28;19999;-84
2023/03/11 01:34:02;;;;;;;;;;;;;;;;;;5022503;28;19913;-84
2023/03/11 01:36:27;;;;;;;;;;;;;;;;;;5025941;28;19913;-84
2023/03/11 01:38:53;;;;;;;;;;;;;;;;;;5026370;28;19970;-84
2023/03/11 01:41:18;;;;;;;;;;;;;;;;;;5026033;28;20742;-84
2023/03/11 01:43:43;;;;;;;;;;;;;;;;;;5023726;28;20379;-85
2023/03/11 01:46:08;;;;;;;;;;;;;;;;;;5026731;28;19917;-84
2023/03/11 01:48:33;;;;;;;;;;;;;;;;;;5022867;28;19931;-84
2023/03/11 01:50:59;;;;;;;;;;;;;;;;;;5023046;28;20064;-84
2023/03/11 01:53:24;;;;;;;;;;;;;;;;;;5022793;28;20463;-84
2023/03/11 01:55:49;;;;;;;;;;;;;;;;;;5025893;28;20012;-84
2023/03/11 01:58:14;;;;;;;;;;;;;;;;;;5026202;28;19924;-85
2023/03/11 02:00:39;;;;;;;;;;;;;;;;;;5025287;28;19921;-84
2023/03/11 02:03:04;;;;;;;;;;;;;;;;;;5026324;28;20000;-84
2023/03/11 02:05:30;;;;;;;;;;;;;;;;;;5023498;28;19932;-84
2023/03/11 02:07:55;;;;;;;;;;;;;;;;;;5022364;28;19931;-84
2023/03/11 02:10:20;;;;;;;;;;;;;;;;;;5024536;28;19931;-85
2023/03/11 02:12:45;;;;;;;;;;;;;;;;;;5025180;28;19933;-85
2023/03/11 02:15:10;;;;;;;;;;;;;;;;;;5026626;28;20298;-85
2023/03/11 02:17:35;;;;;;;;;;;;;;;;;;5021582;28;20012;-85
2023/03/11 02:20:01;;;;;;;;;;;;;;;;;;5027107;28;19917;-85
2023/03/11 02:22:28;;;;;;;;;;;;;;;;;;5026658;28;20325;-85
2023/03/11 02:24:54;;;;;;;;;;;;;;;;;;5027151;28;19913;-86
2023/03/11 02:27:19;;;;;;;;;;;;;;;;;;5023053;28;21297;-86
2023/03/11 02:29:45;;;;;;;;;;;;;;;;;;5024326;28;19921;-85
2023/03/11 02:32:10;;;;;;;;;;;;;;;;;;5027522;28;20378;-86
2023/03/11 02:34:36;;;;;;;;;;;;;;;;;;5026234;28;19924;-86
2023/03/11 02:37:01;;;;;;;;;;;;;;;;;;5025981;28;19956;-86
2023/03/11 02:39:26;;;;;;;;;;;;;;;;;;5022814;28;20330;-85
2023/03/11 02:41:51;;;;;;;;;;;;;;;;;;5026037;28;19920;-86
2023/03/11 02:44:16;;;;;;;;;;;;;;;;;;5025956;28;19943;-87
2023/03/11 02:46:41;;;;;;;;;;;;;;;;;;5025894;28;19967;-87
2023/03/11 02:49:07;;;;;;;;;;;;;;;;;;5022138;28;20002;-87
2023/03/11 02:51:32;;;;;;;;;;;;;;;;;;5021166;28;19921;-85
2023/03/11 02:53:57;;;;;;;;;;;;;;;;;;5028463;28;20350;-86
2023/03/11 02:56:22;;;;;;;;;;;;;;;;;;5028508;28;19917;-86
2023/03/11 02:58:47;;;;;;;;;;;;;;;;;;5024831;28;20278;-84
2023/03/11 03:01:13;;;;;;;;;;;;;;;;;;5025162;28;19917;-87
2023/03/11 03:03:38;;;;;;;;;;;;;;;;;;5025450;28;19913;-85
2023/03/11 03:06:03;;;;;;;;;;;;;;;;;;5022985;28;19917;-87
2023/03/11 03:08:28;;;;;;;;;;;;;;;;;;5024441;28;19951;-86
2023/03/11 03:10:53;;;;;;;;;;;;;;;;;;5022755;28;19967;-87
2023/03/11 03:13:18;;;;;;;;;;;;;;;;;;5022122;28;19928;-87
2023/03/11 03:15:43;;;;;;;;;;;;;;;;;;5025180;28;20307;-87
2023/03/11 03:18:09;;;;;;;;;;;;;;;;;;5022145;28;19921;-86
2023/03/11 03:20:34;;;;;;;;;;;;;;;;;;5027459;28;19936;-86
2023/03/11 03:22:59;;;;;;;;;;;;;;;;;;5022504;28;19917;-87
2023/03/11 03:25:24;;;;;;;;;;;;;;;;;;5024969;28;21527;-86
2023/03/11 03:27:49;;;;;;;;;;;;;;;;;;5021287;28;19922;-87
2023/03/11 03:30:15;;;;;;;;;;;;;;;;;;5024203;28;19913;-87
2023/03/11 03:32:40;;;;;;;;;;;;;;;;;;5024607;28;19917;-86
2023/03/11 03:35:05;;;;;;;;;;;;;;;;;;5024933;28;20375;-86
2023/03/11 03:37:30;;;;;;;;;;;;;;;;;;5024832;28;19924;-87
2023/03/11 03:39:55;;;;;;;;;;;;;;;;;;5024923;28;19917;-87
2023/03/11 03:42:21;;;;;;;;;;;;;;;;;;5025481;28;20566;-86
2023/03/11 03:44:46;;;;;;;;;;;;;;;;;;5021826;28;20366;-86
2023/03/11 03:47:11;;;;;;;;;;;;;;;;;;5022761;28;20510;-86
2023/03/11 03:49:36;;;;;;;;;;;;;;;;;;5024491;28;19995;-86
2023/03/11 03:52:01;;;;;;;;;;;;;;;;;;5024437;28;20366;-86
2023/03/11 03:54:26;;;;;;;;;;;;;;;;;;5022390;28;20139;-87
2023/03/11 03:56:51;;;;;;;;;;;;;;;;;;5019550;28;19921;-85
2023/03/11 03:59:17;;;;;;;;;;;;;;;;;;5022017;28;20054;-86
2023/03/11 04:01:42;;;;;;;;;;;;;;;;;;5023659;28;19913;-86
2023/03/11 04:04:07;;;;;;;;;;;;;;;;;;5024235;28;20170;-87
2023/03/11 04:06:32;;;;;;;;;;;;;;;;;;5022275;28;19927;-87
2023/03/11 04:08:57;;;;;;;;;;;;;;;;;;5022533;28;20333;-87
2023/03/11 04:11:22;;;;;;;;;;;;;;;;;;5025461;28;19932;-87
2023/03/11 04:13:48;;;;;;;;;;;;;;;;;;5024774;28;20378;-87
2023/03/11 04:16:13;;;;;;;;;;;;;;;;;;5023171;28;19913;-86
2023/03/11 04:18:38;;;;;;;;;;;;;;;;;;5017207;28;19925;-87
2023/03/11 04:21:03;;;;;;;;;;;;;;;;;;5020859;28;19913;-87
2023/03/11 04:23:28;;;;;;;;;;;;;;;;;;5025453;28;19937;-86
2023/03/11 04:25:53;;;;;;;;;;;;;;;;;;5023901;28;19917;-87
2023/03/11 04:28:19;;;;;;;;;;;;;;;;;;5017924;28;20345;-86
2023/03/11 04:30:44;;;;;;;;;;;;;;;;;;5023272;28;19920;-86
2023/03/11 04:33:09;;;;;;;;;;;;;;;;;;5023869;28;19988;-86
2023/03/11 04:35:34;;;;;;;;;;;;;;;;;;5024684;28;20401;-86
2023/03/11 04:37:59;;;;;;;;;;;;;;;;;;5019803;28;20378;-87
2023/03/11 04:40:25;;;;;;;;;;;;;;;;;;5020842;28;19917;-86
2023/03/11 04:42:50;;;;;;;;;;;;;;;;;;5025330;28;20363;-87
2023/03/11 04:45:17;;;;;;;;;;;;;;;;;;5019848;28;19921;-86
2023/03/11 04:47:42;;;;;;;;;;;;;;;;;;5023224;28;19913;-86
2023/03/11 04:50:07;;;;;;;;;;;;;;;;;;5025584;28;19928;-86
2023/03/11 04:52:33;;;;;;;;;;;;;;;;;;5021954;28;20434;-86
2023/03/11 04:54:58;;;;;;;;;;;;;;;;;;5024520;28;19917;-85
2023/03/11 04:57:23;;;;;;;;;;;;;;;;;;5022015;28;19925;-86
2023/03/11 04:59:48;;;;;;;;;;;;;;;;;;5024426;28;20046;-86
2023/03/11 05:02:13;;;;;;;;;;;;;;;;;;5025994;28;19910;-86
2023/03/11 05:04:38;;;;;;;;;;;;;;;;;;5027775;28;20006;-86
2023/03/11 05:07:04;;;;;;;;;;;;;;;;;;5028497;28;19924;-86
2023/03/11 05:09:29;;;;;;;;;;;;;;;;;;5026719;28;20379;-87
2023/03/11 05:11:54;;;;;;;;;;;;;;;;;;5028956;28;19927;-85
2023/03/11 05:14:19;;;;;;;;;;;;;;;;;;5025524;28;20367;-87
2023/03/11 05:16:44;;;;;;;;;;;;;;;;;;5028154;28;19923;-86
2023/03/11 05:21:53;;;;;;;;;;;;;;;;;;5024444;28;19932;-86
2023/03/11 05:24:18;;;;;;;;;;;;;;;;;;5024612;28;20012;-86
2023/03/11 05:26:44;;;;;;;;;;;;;;;;;;5027709;28;19924;-87
2023/03/11 05:29:09;;;;;;;;;;;;;;;;;;5028473;28;19924;-87
2023/03/11 05:31:34;;;;;;;;;;;;;;;;;;5027035;28;19913;-86
2023/03/11 05:33:59;;;;;;;;;;;;;;;;;;5023176;28;19917;-86
2023/03/11 05:36:24;;;;;;;;;;;;;;;;;;5025622;28;20497;-86
2023/03/11 05:38:52;;;;;;;;;;;;;;;;;;5029912;28;19917;-86
2023/03/11 05:41:17;;;;;;;;;;;;;;;;;;5027514;28;19920;-86
2023/03/11 05:43:42;;;;;;;;;;;;;;;;;;5026253;28;20301;-86
2023/03/11 05:46:08;;;;;;;;;;;;;;;;;;5024882;28;20019;-85
2023/03/11 05:48:35;;;;;;;;;;;;;;;;;;5028491;28;20359;-86
2023/03/11 05:51:00;;;;;;;;;;;;;;;;;;5029714;28;20390;-86
2023/03/11 05:53:25;;;;;;;;;;;;;;;;;;5027991;28;20126;-87
2023/03/11 05:55:50;;;;;;;;;;;;;;;;;;5027880;28;19913;-87
2023/03/11 05:58:15;;;;;;;;;;;;;;;;;;5026120;28;19978;-86
2023/03/11 06:00:41;;;;;;;;;;;;;;;;;;5030258;28;20370;-85
2023/03/11 06:03:06;;;;;;;;;;;;;;;;;;5027349;28;19925;-86
2023/03/11 06:05:31;;;;;;;;;;;;;;;;;;5029519;28;19959;-87
2023/03/11 06:07:56;;;;;;;;;;;;;;;;;;5024101;28;19959;-86
2023/03/11 06:10:22;;;;;;;;;;;;;;;;;;5026869;28;19920;-87
2023/03/11 06:12:47;;;;;;;;;;;;;;;;;;5027288;28;19913;-85
2023/03/11 06:15:12;;;;;;;;;;;;;;;;;;5028079;28;19971;-85
2023/03/11 06:17:37;;;;;;;;;;;;;;;;;;5024804;28;20379;-85
2023/03/11 06:20:04;;;;;;;;;;;;;;;;;;5026363;28;19963;-86
2023/03/11 06:22:29;;;;;;;;;;;;;;;;;;5025183;28;19917;-85
2023/03/11 06:24:54;;;;;;;;;;;;;;;;;;5026108;28;19932;-86
2023/03/11 06:27:19;;;;;;;;;;;;;;;;;;5027682;28;19923;-85
2023/03/11 06:29:44;;;;;;;;;;;;;;;;;;5026579;28;19913;-86
2023/03/11 06:32:09;;;;;;;;;;;;;;;;;;5023106;28;19917;-87
2023/03/11 06:34:36;;;;;;;;;;;;;;;;;;5026048;28;19913;-85
2023/03/11 06:37:01;;;;;;;;;;;;;;;;;;5022968;28;19956;-86
2023/03/11 06:39:26;;;;;;;;;;;;;;;;;;5027534;28;20151;-85
2023/03/11 06:41:51;;;;;;;;;;;;;;;;;;5027879;28;19995;-87
2023/03/11 06:44:17;;;;;;;;;;;;;;;;;;5025058;28;19919;-87
2023/03/11 06:46:42;;;;;;;;;;;;;;;;;;5027292;28;20449;-87
2023/03/11 06:49:07;;;;;;;;;;;;;;;;;;5029146;28;19928;-87
2023/03/11 06:51:32;;;;;;;;;;;;;;;;;;5024506;28;20334;-87
2023/03/11 06:54:00;;;;;;;;;;;;;;;;;;5024053;28;19917;-87
2023/03/11 06:56:25;;;;;;;;;;;;;;;;;;5028299;28;20889;-87
2023/03/11 06:58:50;;;;;;;;;;;;;;;;;;5029787;28;20004;-87
2023/03/11 07:01:15;;;;;;;;;;;;;;;;;;5021974;28;20019;-87
2023/03/11 07:03:40;;;;;;;;;;;;;;;;;;5018522;28;19917;-87
2023/03/11 07:06:06;;;;;;;;;;;;;;;;;;5024924;28;20569;-87
2023/03/11 07:08:31;;;;;;;;;;;;;;;;;;5022652;28;19927;-87
2023/03/11 07:10:56;;;;;;;;;;;;;;;;;;5023985;28;20307;-87
2023/03/11 07:13:21;;;;;;;;;;;;;;;;;;5025760;28;20483;-86
2023/03/11 07:15:46;;;;;;;;;;;;;;;;;;5022256;28;20279;-87
2023/03/11 07:18:12;;;;;;;;;;;;;;;;;;5024330;28;19923;-87
2023/03/11 07:20:37;;;;;;;;;;;;;;;;;;5025456;28;19936;-87
2023/03/11 07:23:02;;;;;;;;;;;;;;;;;;5020788;28;19921;-88
2023/03/11 07:25:30;;;;;;;;;;;;;;;;;;5017907;28;19921;-86
2023/03/11 07:27:55;;;;;;;;;;;;;;;;;;5024121;28;20007;-87
2023/03/11 07:30:20;;;;;;;;;;;;;;;;;;5024910;28;19921;-87
2023/03/11 07:32:45;;;;;;;;;;;;;;;;;;5023806;28;20655;-87
2023/03/11 07:35:10;;;;;;;;;;;;;;;;;;5028169;28;19929;-87
2023/03/11 07:37:35;;;;;;;;;;;;;;;;;;5028180;28;19913;-88
2023/03/11 07:40:01;;;;;;;;;;;;;;;;;;5028596;28;19921;-88
2023/03/11 07:42:26;;;;;;;;;;;;;;;;;;5030135;28;19923;-87
2023/03/11 07:44:51;;;;;;;;;;;;;;;;;;5029307;28;20013;-87
2023/03/11 07:47:16;;;;;;;;;;;;;;;;;;5025385;28;19909;-87
2023/03/11 07:49:42;;;;;;;;;;;;;;;;;;5028551;28;19913;-87
2023/03/11 07:52:07;;;;;;;;;;;;;;;;;;5033100;28;19913;-86
2023/03/11 07:54:32;;;;;;;;;;;;;;;;;;5029684;28;19909;-88
2023/03/11 07:56:58;;;;;;;;;;;;;;;;;;5029689;28;20363;-87
2023/03/11 07:59:23;;;;;;;;;;;;;;;;;;5026832;28;19917;-88
2023/03/11 08:01:49;;;;;;;;;;;;;;;;;;5028410;28;19913;-87
2023/03/11 08:04:15;;;;;;;;;;;;;;;;;;5028609;28;19913;-87
2023/03/11 08:06:40;;;;;;;;;;;;;;;;;;5028993;28;19921;-88
2023/03/11 08:09:06;;;;;;;;;;;;;;;;;;5026567;28;19913;-87
2023/03/11 08:11:31;;;;;;;;;;;;;;;;;;5028256;28;20051;-87
2023/03/11 08:13:59;;;;;;;;;;;;;;;;;;5030169;28;20431;-87
2023/03/11 08:16:24;;;;;;;;;;;;;;;;;;5029837;28;19909;-87
2023/03/11 08:18:49;;;;;;;;;;;;;;;;;;5028930;28;19920;-87
2023/03/11 08:21:15;;;;;;;;;;;;;;;;;;5025186;28;19920;-87
2023/03/11 08:23:40;;;;;;;;;;;;;;;;;;5010180;28;19909;-87
2023/03/11 08:26:05;;;;;;;;;;;;;;;;;;5026104;28;19913;-87
2023/03/11 08:28:30;;;;;;;;;;;;;;;;;;5028610;28;19929;-87
2023/03/11 08:30:55;;;;;;;;;;;;;;;;;;5028817;28;19913;-87
2023/03/11 08:33:21;;;;;;;;;;;;;;;;;;5028984;28;19921;-88
2023/03/11 08:35:46;;;;;;;;;;;;;;;;;;5030653;28;19920;-87
2023/03/11 08:38:11;;;;;;;;;;;;;;;;;;5028446;28;19971;-87
2023/03/11 08:40:36;;;;;;;;;;;;;;;;;;5032641;28;19913;-87
2023/03/11 08:43:01;;;;;;;;;;;;;;;;;;5029324;28;19945;-87
2023/03/11 08:45:26;;;;;;;;;;;;;;;;;;5026603;28;19920;-87
2023/03/11 08:47:52;;;;;;;;;;;;;;;;;;5028014;28;19976;-86
2023/03/11 08:50:17;;;;;;;;;;;;;;;;;;5028965;28;19913;-87
2023/03/11 08:52:42;;;;;;;;;;;;;;;;;;5031450;28;19913;-86
2023/03/11 08:55:10;;;;;;;;;;;;;;;;;;5020123;28;19919;-85
2023/03/11 08:57:36;;;;;;;;;;;;;;;;;;5025455;28;19936;-86
2023/03/11 09:00:01;;;;;;;;;;;;;;;;;;5027661;28;20398;-86
2023/03/11 09:02:27;;;;;;;;;;;;;;;;;;5030431;28;20163;-86
2023/03/11 09:04:52;;;;;;;;;;;;;;;;;;5025015;28;19914;-86
2023/03/11 09:07:18;;;;;;;;;;;;;;;;;;5024891;28;19924;-87
2023/03/11 09:09:43;;;;;;;;;;;;;;;;;;5026299;28;19946;-87
2023/03/11 09:12:08;;;;;;;;;;;;;;;;;;5026131;28;19932;-86
2023/03/11 09:14:34;;;;;;;;;;;;;;;;;;5022014;28;19976;-86
2023/03/11 09:17:01;;;;;;;;;;;;;;;;;;5029983;28;19921;-86
2023/03/11 09:19:26;;;;;;;;;;;;;;;;;;5026273;28;19917;-88
2023/03/11 09:21:52;;;;;;;;;;;;;;;;;;5029744;28;19916;-88
2023/03/11 09:24:17;;;;;;;;;;;;;;;;;;5029845;28;20303;-87
2023/03/11 09:26:42;;;;;;;;;;;;;;;;;;5025148;28;20354;-88
2023/03/11 09:29:07;;;;;;;;;;;;;;;;;;5034557;28;19956;-88
2023/03/11 09:31:32;;;;;;;;;;;;;;;;;;5032488;28;19960;-87
2023/03/11 09:33:58;;;;;;;;;;;;;;;;;;5031162;28;19913;-88
2023/03/11 09:36:23;;;;;;;;;;;;;;;;;;5028034;28;19924;-88
2023/03/11 09:38:48;;;;;;;;;;;;;;;;;;5023754;28;20271;-87
2023/03/11 09:41:13;;;;;;;;;;;;;;;;;;5031031;28;20621;-84
2023/03/11 09:43:38;;;;;;;;;;;;;;;;;;5028941;28;19913;-85
2023/03/11 09:46:04;;;;;;;;;;;;;;;;;;5029552;28;19916;-85
2023/03/11 09:48:29;;;;;;;;;;;;;;;;;;5034749;28;19920;-83
2023/03/11 09:50:54;;;;;;;;;;;;;;;;;;5037815;28;19927;-84
2023/03/11 09:53:19;;;;;;;;;;;;;;;;;;5031414;28;19917;-84
2023/03/11 09:55:45;;;;;;;;;;;;;;;;;;5031195;28;19913;-85
2023/03/11 09:58:10;;;;;;;;;;;;;;;;;;5032262;28;19924;-83
2023/03/11 10:00:35;;;;;;;;;;;;;;;;;;5029867;28;20374;-83
2023/03/11 10:03:00;;;;;;;;;;;;;;;;;;5037847;28;20339;-84
2023/03/11 10:05:25;;;;;;;;;;;;;;;;;;5037161;28;19921;-83
2023/03/11 10:07:50;;;;;;;;;;;;;;;;;;5032650;28;20414;-84
2023/03/11 10:10:16;;;;;;;;;;;;;;;;;;5032487;28;19913;-84
2023/03/11 10:12:41;;;;;;;;;;;;;;;;;;5028741;28;19920;-82
2023/03/11 10:15:06;;;;;;;;;;;;;;;;;;5032372;28;19936;-82
2023/03/11 10:17:31;;;;;;;;;;;;;;;;;;5031987;28;20011;-82
2023/03/11 10:19:56;;;;;;;;;;;;;;;;;;5034552;28;20011;-82
2023/03/11 10:22:21;;;;;;;;;;;;;;;;;;5034673;28;20059;-82
2023/03/11 10:24:46;;;;;;;;;;;;;;;;;;5032328;28;19913;-82
2023/03/11 10:27:12;;;;;;;;;;;;;;;;;;5041172;28;19913;-84
2023/03/11 10:29:40;;;;;;;;;;;;;;;;;;5039244;28;20128;-83
2023/03/11 10:32:05;;;;;;;;;;;;;;;;;;5034924;28;19975;-85
2023/03/11 10:34:31;;;;;;;;;;;;;;;;;;5038754;28;19948;-82
2023/03/11 10:36:56;;;;;;;;;;;;;;;;;;5024807;28;19948;-84
2023/03/11 10:39:21;;;;;;;;;;;;;;;;;;5030646;28;19961;-83
2023/03/11 10:41:47;;;;;;;;;;;;;;;;;;5038273;28;19913;-84
2023/03/11 10:44:12;;;;;;;;;;;;;;;;;;5033494;28;19995;-84
2023/03/11 10:46:37;;;;;;;;;;;;;;;;;;5029670;28;19913;-84
2023/03/11 10:49:02;;;;;;;;;;;;;;;;;;5033029;28;19966;-84
2023/03/11 10:51:27;;;;;;;;;;;;;;;;;;5029962;28;19913;-84
2023/03/11 10:53:52;;;;;;;;;;;;;;;;;;5031268;28;19913;-85
2023/03/11 10:56:18;;;;;;;;;;;;;;;;;;5030631;28;19920;-84
2023/03/11 10:58:43;;;;;;;;;;;;;;;;;;5038449;28;19971;-84
2023/03/11 11:01:08;;;;;;;;;;;;;;;;;;5030931;28;19913;-85
2023/03/11 11:03:36;;;;;;;;;;;;;;;;;;5030252;28;19914;-83
2023/03/11 11:06:02;;;;;;;;;;;;;;;;;;5030167;28;20000;-84
2023/03/11 11:08:27;;;;;;;;;;;;;;;;;;5025728;28;20008;-84
2023/03/11 11:10:54;;;;;;;;;;;;;;;;;;5026832;28;20213;-84
2023/03/11 11:13:20;;;;;;;;;;;;;;;;;;5028411;28;19952;-84
2023/03/11 11:15:45;;;;;;;;;;;;;;;;;;5032567;28;19967;-84
2023/03/11 11:18:10;;;;;;;;;;;;;;;;;;5036097;28;20380;-85
2023/03/11 11:20:35;;;;;;;;;;;;;;;;;;5031120;28;19919;-85
2023/03/11 11:23:00;;;;;;;;;;;;;;;;;;5028884;28;20089;-86
2023/03/11 11:25:26;;;;;;;;;;;;;;;;;;5024272;28;20860;-85
2023/03/11 11:27:51;;;;;;;;;;;;;;;;;;5031720;28;19967;-84
2023/03/11 11:30:16;;;;;;;;;;;;;;;;;;5031201;28;19913;-83
2023/03/11 11:32:41;;;;;;;;;;;;;;;;;;5038820;28;20504;-83
2023/03/11 11:35:06;;;;;;;;;;;;;;;;;;5033112;28;20379;-85
2023/03/11 11:37:31;;;;;;;;;;;;;;;;;;5030982;28;19923;-84
2023/03/11 11:39:57;;;;;;;;;;;;;;;;;;5029565;28;20402;-84
2023/03/11 11:42:22;;;;;;;;;;;;;;;;;;5036860;28;19913;-82
2023/03/11 11:44:48;;;;;;;;;;;;;;;;;;5033680;28;19917;-83
2023/03/11 11:47:13;;;;;;;;;;;;;;;;;;5030556;28;19913;-83
2023/03/11 11:49:39;;;;;;;;;;;;;;;;;;5036542;28;19923;-82
2023/03/11 11:52:04;;;;;;;;;;;;;;;;;;5035659;28;20389;-85
2023/03/11 11:54:29;;;;;;;;;;;;;;;;;;5035152;28;19913;-82
2023/03/11 11:56:54;;;;;;;;;;;;;;;;;;5023220;28;20402;-83
2023/03/11 11:59:20;;;;;;;;;;;;;;;;;;5031473;28;19916;-84
2023/03/11 12:01:45;;;;;;;;;;;;;;;;;;5034041;28;20155;-85
2023/03/11 12:04:11;;;;;;;;;;;;;;;;;;5026259;28;19913;-83
2023/03/11 12:06:39;;;;;;;;;;;;;;;;;;5036450;28;20400;-84
2023/03/11 12:09:04;;;;;;;;;;;;;;;;;;5028980;28;19917;-83
2023/03/11 12:11:31;;;;;;;;;;;;;;;;;;5016376;28;20045;-83
2023/03/11 12:14:00;;;;;;;;;;;;;;;;;;5029848;28;19913;-83
2023/03/11 12:16:27;;;;;;;;;;;;;;;;;;5029161;28;19917;-83
2023/03/11 12:18:53;;;;;;;;;;;;;;;;;;5023457;28;19925;-84
2023/03/11 12:21:22;;;;;;;;;;;;;;;;;;5024062;28;20282;-83
2023/03/11 12:23:47;;;;;;;;;;;;;;;;;;5026828;28;19921;-83
2023/03/11 12:26:13;;;;;;;;;;;;;;;;;;5028588;28;19967;-83
2023/03/11 12:28:38;;;;;;;;;;;;;;;;;;5027246;28;19923;-83
2023/03/11 12:31:03;;;;;;;;;;;;;;;;;;5023819;28;20287;-82
2023/03/11 12:33:28;;;;;;;;;;;;;;;;;;5024530;28;19917;-83
2023/03/11 12:35:54;;;;;;;;;;;;;;;;;;5026002;28;19971;-83
2023/03/11 12:38:19;;;;;;;;;;;;;;;;;;5028273;28;19923;-83
2023/03/11 12:40:45;;;;;;;;;;;;;;;;;;5026074;28;19939;-83
2023/03/11 12:43:10;;;;;;;;;;;;;;;;;;5029172;28;20004;-83
2023/03/11 12:45:35;;;;;;;;;;;;;;;;;;5026832;28;19921;-84
2023/03/11 12:48:00;;;;;;;;;;;;;;;;;;5026659;28;19960;-83
2023/03/11 12:50:25;;;;;;;;;;;;;;;;;;5026015;28;19921;-83
2023/03/11 12:52:51;;;;;;;;;;;;;;;;;;5026130;28;19967;-83
2023/03/11 12:55:16;;;;;;;;;;;;;;;;;;5028265;28;19917;-82
2023/03/11 12:57:41;;;;;;;;;;;;;;;;;;5024993;28;19983;-83
2023/03/11 13:00:10;;;;;;;;;;;;;;;;;;5024688;28;19963;-82
2023/03/11 13:02:35;;;;;;;;;;;;;;;;;;5028452;28;20391;-82
2023/03/11 13:05:01;;;;;;;;;;;;;;;;;;5027981;28;19920;-82
2023/03/11 13:07:26;;;;;;;;;;;;;;;;;;5025181;28;19952;-82
2023/03/11 13:09:51;;;;;;;;;;;;;;;;;;5024718;28;19917;-82
2023/03/11 13:12:16;;;;;;;;;;;;;;;;;;5026387;28;19917;-82
2023/03/11 13:14:41;;;;;;;;;;;;;;;;;;5027214;28;19917;-81
2023/03/11 13:17:06;;;;;;;;;;;;;;;;;;5025927;28;20015;-82
2023/03/11 13:19:32;;;;;;;;;;;;;;;;;;5024441;28;19975;-82
2023/03/11 13:21:58;;;;;;;;;;;;;;;;;;5027085;28;19921;-82
2023/03/11 13:24:28;;;;;;;;;;;;;;;;;;5035973;28;20390;-82
2023/03/11 13:26:53;;;;;;;;;;;;;;;;;;5029246;28;20645;-82
2023/03/11 13:29:18;;;;;;;;;;;;;;;;;;5029583;28;19917;-83
2023/03/11 13:31:43;;;;;;;;;;;;;;;;;;5024744;28;19967;-82
2023/03/11 13:34:09;;;;;;;;;;;;;;;;;;5030216;28;20658;-82
2023/03/11 13:36:35;;;;;;;;;;;;;;;;;;5032908;28;19913;-83
2023/03/11 13:39:00;;;;;;;;;;;;;;;;;;5028085;28;19935;-82
2023/03/11 13:41:25;;;;;;;;;;;;;;;;;;5029478;28;19924;-82
2023/03/11 13:43:50;;;;;;;;;;;;;;;;;;5027357;28;19924;-83
2023/03/11 13:46:16;;;;;;;;;;;;;;;;;;5031655;28;19913;-82
2023/03/11 13:48:41;;;;;;;;;;;;;;;;;;5029293;28;20294;-81
2023/03/11 13:51:06;;;;;;;;;;;;;;;;;;5030396;28;20004;-82
2023/03/11 13:53:31;;;;;;;;;;;;;;;;;;5024557;28;19924;-82
2023/03/11 13:55:56;;;;;;;;;;;;;;;;;;5025337;28;20024;-82
2023/03/11 13:58:22;;;;;;;;;;;;;;;;;;5030267;28;20441;-82
2023/03/11 14:00:48;;;;;;;;;;;;;;;;;;5027688;28;19929;-82
2023/03/11 14:03:13;;;;;;;;;;;;;;;;;;5030322;28;20169;-83
2023/03/11 14:05:38;;;;;;;;;;;;;;;;;;5028320;28;19967;-83
2023/03/11 14:08:03;;;;;;;;;;;;;;;;;;5028544;28;20357;-85
2023/03/11 14:10:28;;;;;;;;;;;;;;;;;;5026933;28;19913;-83
2023/03/11 14:12:54;;;;;;;;;;;;;;;;;;5029705;28;19924;-83
2023/03/11 14:15:19;;;;;;;;;;;;;;;;;;5029124;28;20413;-83
2023/03/11 14:17:44;;;;;;;;;;;;;;;;;;5028719;28;19917;-84
2023/03/11 14:20:09;;;;;;;;;;;;;;;;;;5028153;28;19921;-82
2023/03/11 14:22:35;;;;;;;;;;;;;;;;;;5028681;28;19936;-83
2023/03/11 14:25:00;;;;;;;;;;;;;;;;;;5028518;28;19913;-83
2023/03/11 14:27:25;;;;;;;;;;;;;;;;;;5029980;28;19923;-83
2023/03/11 14:29:50;;;;;;;;;;;;;;;;;;5029801;28;19996;-82
2023/03/11 14:32:16;;;;;;;;;;;;;;;;;;5029247;28;19913;-83
2023/03/11 14:34:41;;;;;;;;;;;;;;;;;;5028097;28;19913;-83
2023/03/11 14:37:06;;;;;;;;;;;;;;;;;;5028641;28;19917;-83
2023/03/11 14:39:32;;;;;;;;;;;;;;;;;;5029760;28;19918;-83
2023/03/11 14:41:57;;;;;;;;;;;;;;;;;;5028853;28;20310;-83
2023/03/11 14:44:22;;;;;;;;;;;;;;;;;;5029600;28;20146;-84
2023/03/11 14:46:47;;;;;;;;;;;;;;;;;;5028614;28;19913;-83
2023/03/11 14:49:12;;;;;;;;;;;;;;;;;;5028641;28;20027;-83
2023/03/11 14:51:37;;;;;;;;;;;;;;;;;;5028934;28;19917;-82
2023/03/11 14:54:02;;;;;;;;;;;;;;;;;;5029964;28;19917;-83
2023/03/11 14:56:28;;;;;;;;;;;;;;;;;;5030801;28;19947;-84
2023/03/11 14:58:53;;;;;;;;;;;;;;;;;;5028927;28;20393;-83
2023/03/11 15:01:18;;;;;;;;;;;;;;;;;;5030170;28;19948;-83
2023/03/11 15:03:45;;;;;;;;;;;;;;;;;;5030752;28;19920;-82
2023/03/11 15:06:14;;;;;;;;;;;;;;;;;;5030702;28;19913;-82
2023/03/11 15:11:27;;;;;;;;;;;;;;;;;;5021320;28;19921;-84
2023/03/11 15:13:52;;;;;;;;;;;;;;;;;;5010770;28;19913;-83
2023/03/11 15:16:20;;;;;;;;;;;;;;;;;;5029473;28;19913;-84
2023/03/11 15:18:46;;;;;;;;;;;;;;;;;;5030774;28;19963;-83
2023/03/11 15:21:14;;;;;;;;;;;;;;;;;;5023713;28;19956;-83
2023/03/11 15:23:45;;;;;;;;;;;;;;;;;;5031129;28;20003;-84
2023/03/11 15:26:10;;;;;;;;;;;;;;;;;;5028355;28;19921;-83
2023/03/11 15:31:24;;;;;;;;;;;;;;;;;;5033211;28;20390;-82
2023/03/11 15:33:52;;;;;;;;;;;;;;;;;;5028728;28;20398;-82
2023/03/11 15:36:20;;;;;;;;;;;;;;;;;;5032897;28;20284;-82
2023/03/11 15:38:47;;;;;;;;;;;;;;;;;;5028938;28;19928;-83
2023/03/11 15:44:06;;;;;;;;;;;;;;;;;;5035450;28;20014;-82
2023/03/11 15:46:34;;;;;;;;;;;;;;;;;;5027882;28;19924;-82
2023/03/11 15:49:03;;;;;;;;;;;;;;;;;;5029653;28;19913;-83
2023/03/11 15:51:28;;;;;;;;;;;;;;;;;;5034432;28;19913;-82
2023/03/11 15:53:53;;;;;;;;;;;;;;;;;;5028051;28;19917;-82
2023/03/11 15:56:21;;;;;;;;;;;;;;;;;;5033361;28;19921;-82
2023/03/11 15:58:47;;;;;;;;;;;;;;;;;;5026788;28;19921;-83
2023/03/11 16:01:12;;;;;;;;;;;;;;;;;;5029419;28;19967;-83
2023/03/11 16:06:28;;;;;;;;;;;;;;;;;;5024675;28;19925;-83
2023/03/11 16:08:54;;;;;;;;;;;;;;;;;;5023779;28;19928;-82
2023/03/11 16:11:26;;;;;;;;;;;;;;;;;;5025423;28;19923;-82
2023/03/11 16:13:51;;;;;;;;;;;;;;;;;;5026117;28;19913;-84
2023/03/11 16:16:24;;;;;;;;;;;;;;;;;;5025515;28;20576;-82
2023/03/11 16:18:52;;;;;;;;;;;;;;;;;;5025822;28;19972;-83
2023/03/11 16:21:22;;;;;;;;;;;;;;;;;;5022269;28;19982;-83
2023/03/11 16:23:47;;;;;;;;;;;;;;;;;;5022640;28;19925;-83
2023/03/11 16:26:18;;;;;;;;;;;;;;;;;;5030455;28;19923;-82
2023/03/11 16:28:46;;;;;;;;;;;;;;;;;;5019120;28;19917;-82
2023/03/11 16:31:14;;;;;;;;;;;;;;;;;;5028916;28;19994;-82
2023/03/11 16:33:39;;;;;;;;;;;;;;;;;;5026798;28;19913;-81
2023/03/11 16:36:04;;;;;;;;;;;;;;;;;;5028480;28;20043;-81
2023/03/11 16:38:30;;;;;;;;;;;;;;;;;;5039153;28;19939;-83
2023/03/11 16:40:55;;;;;;;;;;;;;;;;;;5035601;28;19917;-82
2023/03/11 16:43:23;;;;;;;;;;;;;;;;;;5028485;28;19977;-81
2023/03/11 16:45:53;;;;;;;;;;;;;;;;;;5032309;28;20148;-83
2023/03/11 16:48:21;;;;;;;;;;;;;;;;;;5032179;28;20444;-82